East Warners (211) Station Data

Red Flag Warning: Yes
Fire Weather Zone: 258
SDGE Region: Ramona
Lat/Lon: 33.227/-116.621

Observations

Time Wind Speed/Gust Temp(F) RH Fuel Moist Fuel Temp(F) Dewpt(F) Tmax(F) Tmin(F) Accum Precip 10-min Precip SL Press(mb)
6/27 5:00pm 255 20 G 29 87° 13% - - 31° 91.5° 66.1° - - -
6/27 4:50pm 259 20 G 28 88° 14% - - 32° 91.5° 66.1° - - -
6/27 4:40pm 258 20 G 32 88° 13% - - 32° 91.5° 66.1° - - -
6/27 4:30pm 267 19 G 30 87° 15% - - 33° 91.5° 66.1° - - -
6/27 4:20pm 267 17 G 26 88° 15% - - 35° 91.5° 66.1° - - -
6/27 4:10pm 266 18 G 29 88° 16% - - 36° 91.5° 66.1° - - -
6/27 4:00pm 267 20 G 30 88° 16% - - 37° 91.5° 66.1° - - -
6/27 3:50pm 268 17 G 26 88° 16% - - 37° 91.5° 66.1° - - -
6/27 3:40pm 263 19 G 29 88° 16% - - 37° 91.5° 66.1° - - -
6/27 3:30pm 269 17 G 26 88° 16% - - 36° 91.5° 66.1° - - -
6/27 3:20pm 262 20 G 30 89° 14% - - 34° 91.5° 66.1° - - -
6/27 3:10pm 258 19 G 27 89° 14% - - 34° 91.5° 66.1° - - -
6/27 3:00pm 260 18 G 28 89° 14% - - 34° 91.5° 66.1° - - -
6/27 2:50pm 264 20 G 28 90° 14% - - 33° 91.5° 66.1° - - -
6/27 2:40pm 275 19 G 32 90° 13% - - 32° 91.5° 66.1° - - -
6/27 2:30pm 263 19 G 34 90° 15% - - 36° 91.5° 66.1° - - -
6/27 2:20pm 258 20 G 31 90° 16% - - 38° 91.5° 66.1° - - -
6/27 2:10pm 259 19 G 30 90° 15% - - 36° 91.5° 66.1° - - -
6/27 2:00pm 269 19 G 29 90° 11% - - 29° 91.5° 66.1° - - -
6/27 1:50pm 270 18 G 30 90° 10% - - 26° 91.5° 66.1° - - -
6/27 1:40pm 268 18 G 26 90° 10% - - 25° 91.5° 66.1° - - -
6/27 1:30pm 268 19 G 30 89° 10% - - 25° 91.5° 66.1° - - -
6/27 1:20pm 268 19 G 29 90° 10% - - 25° 91.5° 66.1° - - -
6/27 1:10pm 275 16 G 27 90° 10% - - 25° 91.5° 66.1° - - -
6/27 1:00pm 270 17 G 26 90° 10% - - 25° 91.5° 66.1° - - -
6/27 12:50pm 264 17 G 28 90° 10% - - 25° 91.5° 66.1° - - -
6/27 12:40pm 270 17 G 25 89° 10% - - 24° 89.9° 66.1° - - -
6/27 12:30pm 275 18 G 33 89° 9% - - 23° 89.9° 66.1° - - -
6/27 12:20pm 272 19 G 29 89° 9% - - 23° 89.6° 66.1° - - -
6/27 12:10pm 280 19 G 28 88° 9% - - 23° 89.4° 66.1° - - -
6/27 12:00pm 270 17 G 26 88° 10% - - 24° 89.4° 66.1° - - -
6/27 11:50am 256 18 G 28 88° 10% - - 25° 89.4° 66.1° - - -
6/27 11:40am 268 18 G 26 88° 10% - - 24° 89.1° 66.1° - - -
6/27 11:30am 254 21 G 31 88° 9% - - 23° 89.1° 66.1° - - -
6/27 11:20am 252 21 G 30 88° 9% - - 23° 89.1° 66.1° - - -
6/27 11:10am 261 18 G 26 88° 9% - - 23° 88.6° 66.1° - - -
6/27 11:00am 265 16 G 27 88° 10% - - 24° 88.1° 66.1° - - -
6/27 10:50am 275 16 G 23 87° 10% - - 24° 88° 66.1° - - -
6/27 10:40am 271 15 G 26 87° 10% - - 24° 88° 66.1° - - -
6/27 10:30am 271 16 G 23 86° 11% - - 25° 87° 66.1° - - -
6/27 10:20am 284 17 G 27 85° 11% - - 26° 86.1° 66.1° - - -
6/27 10:10am 281 17 G 26 85° 11% - - 26° 86.1° 66.1° - - -
6/27 10:00am 279 14 G 20 85° 12% - - 26° 86.1° 66.1° - - -
6/27 9:50am 296 14 G 19 84° 12% - - 26° 84.6° 66.1° - - -
6/27 9:40am 296 13 G 19 83° 12% - - 26° 83.5° 66.1° - - -
6/27 9:30am 294 13 G 18 82° 12% - - 25° 83.1° 66.1° - - -
6/27 9:20am 292 11 G 16 82° 12% - - 23° 82.3° 66.1° - - -
6/27 9:10am 294 9 G 14 81° 11% - - 21° 81.3° 66.1° - - -
6/27 9:00am 295 8 G 11 79° 13% - - 24° 80.1° 66.1° - - -
6/27 8:50am 285 5 G 8 78° 16% - - 27° 78.8° 66.1° - - -
6/27 8:40am 275 5 G 7 76° 17% - - 29° 77.2° 66.1° - - -
6/27 8:30am 282 4 G 7 75° 17% - - 27° 76.3° 66.1° - - -
6/27 8:20am 285 5 G 7 75° 16% - - 25° 75.6° 66.1° - - -
6/27 8:10am 285 5 G 7 75° 16% - - 25° 75.6° 66.1° - - -
6/27 8:00am 289 4 G 6 75° 15% - - 24° 75.6° 66.1° - - -
6/27 7:50am 299 2 G 4 75° 15% - - 24° 75.6° 66.1° - - -
6/27 7:40am 317 0 G 2 75° 16% - - 25° 75.6° 66.1° - - -
6/27 7:30am 39 1 G 2 75° 17% - - 27° 75.6° 66.1° - - -
6/27 7:20am 79 2 G 2 74° 17% - - 27° 74.6° 66.1° - - -
6/27 7:10am 83 1 G 2 73° 17% - - 26° 74.4° 66.1° - - -
6/27 7:00am 93 2 G 3 71° 18% - - 26° 72.7° 66.1° - - -
6/27 6:50am 99 2 G 3 71° 18% - - 25° 72.7° 66.1° - - -
6/27 6:40am 98 1 G 2 72° 16% - - 23° 72.7° 66.1° - - -
6/27 6:30am 151 0 G 1 70° 17% - - 23° 72.4° 66.1° - - -
6/27 6:20am 107 2 G 3 69° 17% - - 23° 72.4° 66.1° - - -
6/27 6:10am 89 3 G 4 68° 18% - - 23° 72.4° 66.1° - - -
6/27 6:00am 79 3 G 4 69° 18% - - 23° 72.4° 66.1° - - -
6/27 5:50am 98 1 G 2 69° 17% - - 23° 72.4° 66.1° - - -
6/27 5:40am 95 2 G 2 68° 18% - - 23° 72.4° 66.1° - - -
6/27 5:30am 97 2 G 3 68° 18% - - 23° 72.4° 66.1° - - -
6/27 5:20am 106 3 G 4 67° 19% - - 23° 72.4° 66.1° - - -
6/27 5:10am 88 3 G 3 67° 19% - - 24° 72.4° 66.1° - - -
6/27 5:00am 98 2 G 3 67° 19% - - 24° 72.4° 66.1° - - -
6/27 4:50am 283 0 G 2 68° 19% - - 23° 72.4° 66.1° - - -
6/27 4:40am 238 0 G 2 67° 19% - - 24° 72.4° 66.1° - - -
6/27 4:30am 0 0 G 0 67° 19% - - 24° 72.4° 66.2° - - -
6/27 4:20am 75 1 G 1 67° 19% - - 24° 72.4° 66.3° - - -
6/27 4:10am 29 0 G 1 67° 19% - - 24° 72.4° 66.3° - - -
6/27 4:00am 84 0 G 1 67° 19% - - 24° 72.4° 66.3° - - -
6/27 3:50am 27 0 G 1 67° 19% - - 24° 72.4° 66.3° - - -
6/27 3:40am 284 1 G 3 67° 19% - - 24° 72.4° 66.3° - - -
6/27 3:30am 239 1 G 2 67° 20% - - 24° 72.4° 66.3° - - -
6/27 3:20am 346 1 G 3 67° 20% - - 25° 72.4° 66.3° - - -
6/27 3:10am 327 0 G 1 67° 20% - - 25° 72.4° 66.3° - - -
6/27 3:00am 267 1 G 3 67° 20% - - 25° 72.4° 66.5° - - -
6/27 2:50am 251 1 G 2 67° 21% - - 25° 72.4° 66.5° - - -
6/27 2:40am 230 1 G 2 67° 21% - - 26° 72.4° 66.5° - - -
6/27 2:30am 330 1 G 2 68° 21% - - 26° 72.4° 66.8° - - -
6/27 2:20am 281 2 G 4 68° 20% - - 26° 72.4° 67.5° - - -
6/27 2:10am 268 2 G 4 69° 20% - - 26° 72.4° 67.8° - - -
6/27 2:00am 273 4 G 7 70° 19% - - 26° 72.4° 68.5° - - -
6/27 1:50am 261 3 G 4 69° 20% - - 26° 72.4° 68.5° - - -
6/27 1:40am 249 2 G 5 69° 20% - - 26° 72.4° 68.5° - - -
6/27 1:30am 313 1 G 2 69° 19% - - 26° 72.4° 68.6° - - -
6/27 1:20am 311 1 G 2 70° 19% - - 26° 72.4° 69.7° - - -
6/27 1:10am 259 4 G 7 71° 18% - - 26° 72.4° 70.2° - - -
6/27 1:00am 249 4 G 6 71° 18% - - 26° 72.4° 70.6° - - -
6/27 12:50am 259 4 G 6 72° 18% - - 25° 72.4° 70.8° - - -
6/27 12:40am 235 5 G 7 72° 18% - - 26° 72.3° 70.8° - - -
6/27 12:30am 217 6 G 7 71° 18% - - 26° 72.2° 70.8° - - -
6/27 12:20am 215 5 G 7 72° 18% - - 26° 72.2° 70.8° - - -
6/27 12:10am 215 4 G 7 71° 19% - - 27° 72° 70.8° - - -
6/27 12:00am 332 2 G 7 71° 20% - - 28° 96.4° 70° - - -
6/26 11:50pm 304 6 G 13 74° 17% - - 26° 96.4° 70.2° - - -
6/26 11:40pm 251 12 G 17 78° 12% - - 22° 96.4° 72.3° - - -
6/26 11:30pm 270 9 G 16 75° 15% - - 25° 96.4° 72.3° - - -
6/26 11:20pm 281 9 G 13 75° 16% - - 25° 96.4° 72.3° - - -
6/26 11:10pm 276 9 G 14 77° 15% - - 25° 96.4° 72.3° - - -
6/26 11:00pm 249 11 G 15 79° 13% - - 24° 96.4° 72.3° - - -
6/26 10:50pm 262 9 G 14 79° 13% - - 24° 96.4° 72.3° - - -
6/26 10:40pm 255 10 G 14 79° 13% - - 24° 96.4° 72.3° - - -
6/26 10:30pm 276 6 G 10 78° 14% - - 24° 96.4° 72.3° - - -
6/26 10:20pm 274 6 G 11 79° 13% - - 24° 96.4° 72.3° - - -
6/26 10:10pm 252 9 G 15 81° 12% - - 23° 96.4° 72.3° - - -
6/26 10:00pm 246 11 G 15 81° 12% - - 23° 96.4° 72.3° - - -
6/26 9:50pm 245 12 G 17 82° 12% - - 23° 96.4° 72.3° - - -
6/26 9:40pm 247 13 G 16 82° 12% - - 25° 96.4° 72.3° - - -
6/26 9:30pm 245 15 G 19 82° 13% - - 26° 96.4° 72.3° - - -
6/26 9:20pm 246 15 G 20 82° 14% - - 28° 96.4° 72.3° - - -
6/26 9:10pm 247 16 G 21 82° 14% - - 28° 96.4° 72.3° - - -
6/26 9:00pm 254 15 G 19 82° 13% - - 26° 96.4° 72.3° - - -
6/26 8:50pm 279 8 G 16 80° 13% - - 25° 96.4° 72.3° - - -
6/26 8:40pm 265 10 G 18 82° 11% - - 23° 96.4° 72.3° - - -
6/26 8:30pm 246 13 G 18 83° 11% - - 23° 96.4° 72.3° - - -
6/26 8:20pm 246 13 G 18 83° 11% - - 22° 96.4° 72.3° - - -
6/26 8:10pm 243 16 G 21 83° 10% - - 22° 96.4° 72.3° - - -
6/26 8:00pm 246 15 G 20 84° 10% - - 22° 96.4° 72.3° - - -
6/26 7:50pm 249 15 G 25 85° 10% - - 23° 96.4° 72.3° - - -
6/26 7:40pm 250 18 G 26 86° 10% - - 22° 96.4° 72.3° - - -
6/26 7:30pm 252 19 G 26 86° 9% - - 22° 96.4° 72.3° - - -
6/26 7:20pm 254 19 G 25 87° 9% - - 22° 96.4° 72.3° - - -
6/26 7:10pm 254 19 G 26 88° 9% - - 22° 96.4° 72.3° - - -
6/26 7:00pm 256 21 G 29 88° 8% - - 21° 96.4° 72.3° - - -
6/26 6:50pm 259 19 G 25 89° 9% - - 21° 96.4° 72.3° - - -
6/26 6:40pm 259 18 G 27 89° 8% - - 21° 96.4° 72.3° - - -
6/26 6:30pm 263 20 G 27 89° 8% - - 19° 96.4° 72.3° - - -
6/26 6:20pm 259 20 G 29 90° 8% - - 20° 96.4° 72.3° - - -
6/26 6:10pm 258 20 G 27 90° 8% - - 19° 96.4° 72.3° - - -
6/26 6:00pm 262 19 G 30 90° 8% - - 20° 96.4° 72.3° - - -
6/26 5:50pm 261 21 G 30 90° 8% - - 21° 96.4° 72.3° - - -
6/26 5:40pm 254 22 G 30 91° 8% - - 22° 96.4° 72.3° - - -
6/26 5:30pm 258 21 G 29 91° 9% - - 24° 96.4° 72.3° - - -
6/26 5:20pm 263 20 G 28 92° 9% - - 24° 96.4° 72.3° - - -
6/26 5:10pm 262 19 G 27 92° 9% - - 25° 96.4° 72.3° - - -
6/26 5:00pm 262 20 G 28 92° 9% - - 25° 96.4° 72.3° - - -
6/26 4:50pm 263 20 G 30 92° 9% - - 26° 96.4° 72.3° - - -
6/26 4:40pm 260 22 G 29 92° 9% - - 26° 96.4° 72.3° - - -
6/26 4:30pm 262 22 G 32 93° 10% - - 28° 96.4° 72.3° - - -
6/26 4:20pm 267 20 G 30 93° 10% - - 28° 96.4° 72.3° - - -
6/26 4:10pm 265 19 G 29 93° 10% - - 28° 96.4° 72.3° - - -
6/26 4:00pm 264 19 G 28 93° 9% - - 27° 96.4° 72.3° - - -
6/26 3:50pm 256 21 G 29 93° 10% - - 28° 96.4° 72.3° - - -
6/26 3:40pm 255 22 G 29 93° 9% - - 27° 96.4° 72.3° - - -
6/26 3:30pm 258 22 G 32 93° 9% - - 27° 96.4° 72.3° - - -
6/26 3:20pm 253 22 G 33 94° 9% - - 27° 96.4° 72.3° - - -
6/26 3:10pm 260 19 G 28 94° 9% - - 28° 96.4° 72.3° - - -
6/26 3:00pm 258 19 G 30 94° 9% - - 27° 96.4° 72.3° - - -
6/26 2:50pm 270 18 G 30 94° 9% - - 26° 96.4° 72.3° - - -
6/26 2:40pm 270 19 G 29 94° 9% - - 26° 96.4° 72.3° - - -
6/26 2:30pm 263 19 G 32 94° 9% - - 25° 96.4° 72.3° - - -
6/26 2:20pm 263 18 G 26 95° 9% - - 26° 96.4° 72.3° - - -
6/26 2:10pm 262 19 G 29 94° 9% - - 25° 96.4° 72.3° - - -
6/26 2:00pm 264 18 G 30 95° 9% - - 26° 96.4° 72.3° - - -
6/26 1:50pm 262 18 G 28 95° 9% - - 26° 96.4° 72.3° - - -
6/26 1:40pm 256 19 G 33 94° 9% - - 26° 96.4° 72.3° - - -
6/26 1:30pm 256 20 G 28 94° 8% - - 25° 96.4° 72.3° - - -
6/26 1:20pm 257 18 G 28 95° 9% - - 26° 96.4° 72.3° - - -
6/26 1:10pm 252 20 G 28 95° 9% - - 27° 96.4° 72.3° - - -
6/26 1:00pm 263 19 G 29 94° 9% - - 27° 96.4° 72.3° - - -
6/26 12:50pm 265 17 G 24 95° 9% - - 27° 96.4° 72.3° - - -
6/26 12:40pm 253 19 G 29 95° 9% - - 27° 96.4° 72.3° - - -
6/26 12:30pm 250 22 G 31 94° 9% - - 27° 96.4° 72.3° - - -
6/26 12:20pm 256 21 G 29 95° 9% - - 26° 96.4° 72.3° - - -
6/26 12:10pm 258 19 G 28 95° 9% - - 28° 96.4° 72.3° - - -
6/26 12:00pm 253 21 G 29 95° 10% - - 29° 96.4° 72.3° - - -
6/26 11:50am 254 19 G 27 95° 10% - - 30° 96.4° 72.3° - - -
6/26 11:40am 263 17 G 26 95° 10% - - 30° 96.4° 72.3° - - -
6/26 11:30am 249 19 G 27 95° 10% - - 30° 96.4° 72.3° - - -
6/26 11:20am 260 14 G 24 95° 11% - - 31° 96.4° 72.3° - - -
6/26 11:10am 259 12 G 24 94° 11% - - 32° 94.8° 72.3° - - -
6/26 11:00am 265 9 G 18 93° 12% - - 33° 94.2° 72.3° - - -
6/26 10:50am 272 9 G 14 93° 11% - - 31° 94° 72.3° - - -
6/26 10:40am 276 10 G 17 92° 11% - - 30° 93.5° 72.3° - - -
6/26 10:30am 280 9 G 15 92° 11% - - 31° 93.2° 72.3° - - -
6/26 10:20am 282 9 G 16 92° 12% - - 32° 92.6° 72.3° - - -
6/26 10:10am 293 11 G 17 91° 12% - - 31° 92° 72.3° - - -
6/26 10:00am 293 10 G 14 91° 11% - - 30° 91.9° 72.3° - - -
6/26 9:50am 292 8 G 11 91° 12% - - 31° 91.9° 72.3° - - -
6/26 9:40am 299 9 G 12 90° 13% - - 33° 90.8° 72.3° - - -
6/26 9:30am 293 8 G 10 89° 17% - - 38° 89.8° 72.3° - - -
6/26 9:20am 293 7 G 10 88° 19% - - 40° 88.4° 72.3° - - -
6/26 9:10am 287 5 G 8 87° 19% - - 40° 87.8° 72.3° - - -
6/26 9:00am 274 3 G 5 86° 20% - - 40° 86.6° 72.3° - - -
6/26 8:50am 282 5 G 9 85° 20% - - 40° 85.6° 72.3° - - -
6/26 8:40am 282 3 G 5 84° 20% - - 38° 85.3° 72.3° - - -
6/26 8:30am 313 1 G 5 83° 20% - - 38° 84.2° 72.3° - - -
6/26 8:20am 316 1 G 2 82° 20% - - 38° 83.2° 72.3° - - -
6/26 8:10am 359 2 G 3 82° 20% - - 37° 83.2° 72.3° - - -
6/26 8:00am 28 1 G 2 80° 21% - - 37° 83.1° 72.3° - - -
6/26 7:50am 309 1 G 3 79° 22% - - 37° 83.1° 72.3° - - -
6/26 7:40am 303 1 G 2 79° 22% - - 37° 83.1° 72.3° - - -
6/26 7:30am 0 0 G 0 79° 22% - - 37° 83.1° 72.3° - - -
6/26 7:20am 259 0 G 1 78° 21% - - 35° 83.1° 72.3° - - -
6/26 7:10am 215 1 G 2 77° 22% - - 35° 83.1° 72.3° - - -
6/26 7:00am 218 0 G 2 77° 23% - - 36° 83.1° 72.3° - - -
6/26 6:50am 290 0 G 1 76° 23% - - 35° 83.1° 72.3° - - -
6/26 6:40am 116 0 G 1 76° 23% - - 36° 83.1° 72.3° - - -
6/26 6:30am 112 0 G 1 75° 23% - - 35° 83.1° 72.3° - - -
6/26 6:20am 95 0 G 1 75° 23% - - 35° 83.1° 72.3° - - -
6/26 6:10am 103 2 G 3 74° 24% - - 35° 83.1° 72.3° - - -
6/26 6:00am 91 2 G 3 74° 24% - - 35° 83.1° 72.3° - - -